createdAt,value
2019-03-18T00:00:41.571Z,100545.37
2019-03-18T00:03:12.872Z,100550.39
2019-03-18T00:05:44.106Z,100539.87
2019-03-18T00:08:15.344Z,100546.47
2019-03-18T00:10:46.605Z,100545.51
2019-03-18T00:13:17.770Z,100548.25
2019-03-18T00:15:48.993Z,100543.23
2019-03-18T00:18:20.206Z,100552.08
2019-03-18T00:20:51.444Z,100557.71
2019-03-18T00:23:22.694Z,100557.58
2019-03-18T00:25:53.931Z,100555.91
2019-03-18T00:28:25.078Z,100567.49
2019-03-18T00:30:56.418Z,100561.87
2019-03-18T00:33:27.632Z,100567.49
2019-03-18T00:35:58.821Z,100580.16
2019-03-18T00:38:30.060Z,100564.65
2019-03-18T00:41:01.295Z,100577.19
2019-03-18T00:43:32.508Z,100571.67
2019-03-18T00:46:03.767Z,100578.02
2019-03-18T00:48:35.020Z,100575.75
2019-03-18T00:51:06.304Z,100582.33
2019-03-18T00:53:37.516Z,100577.77
2019-03-18T00:56:08.761Z,100576.94
2019-03-18T00:58:40.048Z,100573.73
2019-03-18T01:01:11.526Z,100581.12
2019-03-18T01:03:42.811Z,100577.78
2019-03-18T01:06:13.966Z,100586.39
2019-03-18T01:08:45.227Z,100582.53
2019-03-18T01:11:16.393Z,100581.24
2019-03-18T01:13:47.563Z,100577.54
2019-03-18T01:16:18.851Z,100587.17
2019-03-18T01:18:50.138Z,100581.83
2019-03-18T01:21:21.423Z,100584.11
2019-03-18T01:23:52.708Z,100584.83
2019-03-18T01:26:23.946Z,100584.20
2019-03-18T01:28:55.190Z,100579.69
2019-03-18T01:31:26.330Z,100583.72
2019-03-18T01:33:57.557Z,100584.59
2019-03-18T01:36:28.789Z,100589.96
2019-03-18T01:39:00.034Z,100586.02
2019-03-18T01:41:31.368Z,100582.33
2019-03-18T01:44:02.581Z,100586.48
2019-03-18T01:46:33.868Z,100587.81
2019-03-18T01:49:05.168Z,100592.81
2019-03-18T01:51:36.423Z,100594.25
2019-03-18T01:54:07.627Z,100594.07
2019-03-18T01:56:38.914Z,100580.91
2019-03-18T01:59:10.153Z,100584.62
2019-03-18T02:01:41.411Z,100583.11
2019-03-18T02:04:12.612Z,100577.03
2019-03-18T02:06:43.771Z,100584.69
2019-03-18T02:09:15.067Z,100581.33
2019-03-18T02:11:46.250Z,100584.69
2019-03-18T02:14:17.563Z,100576.53
2019-03-18T02:16:48.838Z,100584.77
2019-03-18T02:19:20.192Z,100577.81
2019-03-18T02:21:51.402Z,100583.89
2019-03-18T02:24:22.694Z,100588.19
2019-03-18T02:26:53.889Z,100586.23
2019-03-18T02:29:25.453Z,100592.30
2019-03-18T02:31:56.594Z,100596.37
2019-03-18T02:34:27.844Z,100604.47
2019-03-18T02:36:58.965Z,100608.41
2019-03-18T02:39:30.227Z,100622.50
2019-03-18T02:42:01.345Z,100634.52
2019-03-18T02:44:32.621Z,100638.13
2019-03-18T02:47:03.927Z,100644.59
2019-03-18T02:49:35.049Z,100640.80
2019-03-18T02:52:06.414Z,100634.84
2019-03-18T02:54:37.689Z,100629.57
2019-03-18T02:57:08.929Z,100634.64
2019-03-18T02:59:40.071Z,100641.92
2019-03-18T03:02:11.339Z,100642.18
2019-03-18T03:04:42.561Z,100654.27
2019-03-18T03:07:13.835Z,100652.45
2019-03-18T03:09:45.063Z,100658.06
2019-03-18T03:12:16.427Z,100654.82
2019-03-18T03:14:47.470Z,100655.91
2019-03-18T03:17:21.719Z,100662.13
2019-03-18T03:19:51.643Z,100658.65
2019-03-18T03:22:22.952Z,100665.97
2019-03-18T03:24:54.179Z,100656.98
2019-03-18T03:27:25.428Z,100657.33
2019-03-18T03:29:56.689Z,100663.13
2019-03-18T03:32:27.955Z,100662.37
2019-03-18T03:34:59.242Z,100661.90
2019-03-18T03:37:30.469Z,100670.41
2019-03-18T03:40:01.749Z,100676.02
2019-03-18T03:42:32.953Z,100677.46
2019-03-18T03:45:04.229Z,100677.58
2019-03-18T03:47:35.481Z,100684.27
2019-03-18T03:50:07.432Z,100688.58
2019-03-18T03:52:38.699Z,100687.97
2019-03-18T03:55:10.288Z,100692.06
2019-03-18T03:57:41.596Z,100696.10
2019-03-18T04:00:13.279Z,100698.73
2019-03-18T04:02:45.015Z,100697.88
2019-03-18T04:05:35.591Z,100698.73
2019-03-18T04:08:07.046Z,100700.78
2019-03-18T04:10:38.205Z,100700.28
2019-03-18T04:13:09.474Z,100711.08
2019-03-18T04:15:40.701Z,100709.64
2019-03-18T04:18:11.969Z,100711.42
2019-03-18T04:20:43.116Z,100716.69
2019-03-18T04:23:14.460Z,100718.64
2019-03-18T04:25:45.564Z,100722.33
2019-03-18T04:28:16.739Z,100721.73
2019-03-18T04:30:47.974Z,100725.91
2019-03-18T04:33:19.220Z,100725.91
2019-03-18T04:35:50.498Z,100723.77
2019-03-18T04:38:21.647Z,100731.79
2019-03-18T04:40:52.822Z,100729.86
2019-03-18T04:43:24.006Z,100732.61
2019-03-18T04:45:55.302Z,100740.27
2019-03-18T04:48:26.573Z,100738.11
2019-03-18T04:50:57.789Z,100751.16
2019-03-18T04:53:29.072Z,100751.19
2019-03-18T04:56:00.317Z,100752.96
2019-03-18T04:58:31.664Z,100755.59
2019-03-18T05:01:02.958Z,100758.45
2019-03-18T05:03:34.174Z,100760.88
2019-03-18T05:06:05.463Z,100757.63
2019-03-18T05:08:36.627Z,100754.97
2019-03-18T05:11:07.896Z,100761.45
2019-03-18T05:13:39.127Z,100777.25
2019-03-18T05:16:10.355Z,100778.59
2019-03-18T05:18:41.572Z,100784.78
2019-03-18T05:21:12.735Z,100787.55
2019-03-18T05:23:43.882Z,100791.50
2019-03-18T05:26:15.182Z,100793.55
2019-03-18T05:28:46.410Z,100799.41
2019-03-18T05:31:17.571Z,100806.09
2019-03-18T05:33:48.801Z,100808.85
2019-03-18T05:36:38.980Z,100815.33
2019-03-18T05:39:10.176Z,100817.83
2019-03-18T05:41:44.201Z,100821.42
2019-03-18T05:44:15.496Z,100826.22
2019-03-18T05:46:46.819Z,100830.88
2019-03-18T05:49:17.991Z,100834.70
2019-03-18T05:51:49.268Z,100838.17
2019-03-18T05:54:20.528Z,100846.27
2019-03-18T05:56:51.794Z,100851.78
2019-03-18T05:59:23.022Z,100847.27
2019-03-18T06:01:54.257Z,100851.07
2019-03-18T06:04:28.237Z,100852.99
2019-03-18T06:06:59.398Z,100853.86
2019-03-18T06:09:31.036Z,100857.20
2019-03-18T06:12:02.333Z,100865.38
2019-03-18T06:14:33.540Z,100872.54
2019-03-18T06:17:04.722Z,100867.52
2019-03-18T06:19:35.876Z,100877.09
2019-03-18T06:22:07.142Z,100881.87
2019-03-18T06:24:38.385Z,100885.95
2019-03-18T06:27:09.673Z,100887.03
2019-03-18T06:29:40.878Z,100897.22
2019-03-18T06:32:12.153Z,100899.13
2019-03-18T06:34:43.302Z,100897.81
2019-03-18T06:37:14.456Z,100904.87
2019-03-18T06:39:45.700Z,100905.67
2019-03-18T06:42:18.689Z,100909.98
2019-03-18T06:44:49.783Z,100919.70
2019-03-18T06:47:21.055Z,100911.06
2019-03-18T06:49:52.322Z,100914.52
2019-03-18T06:52:23.578Z,100914.28
2019-03-18T06:54:54.765Z,100920.48
2019-03-18T06:57:26.000Z,100924.63
2019-03-18T06:59:57.310Z,100927.28
2019-03-18T07:02:47.467Z,100929.23
2019-03-18T07:05:18.761Z,100934.16
2019-03-18T07:10:25.423Z,100939.33
2019-03-18T07:12:56.547Z,100932.34
2019-03-18T07:15:27.812Z,100945.87
2019-03-18T07:17:59.076Z,100953.78
2019-03-18T07:20:30.324Z,100953.15
2019-03-18T07:23:01.552Z,100949.81
2019-03-18T07:25:32.832Z,100952.09
2019-03-18T07:28:04.000Z,100957.12
2019-03-18T07:30:38.297Z,100967.23
2019-03-18T07:33:09.521Z,100969.52
2019-03-18T07:35:40.718Z,100971.86
2019-03-18T07:38:11.979Z,100968.87
2019-03-18T07:40:43.282Z,100975.66
2019-03-18T07:43:14.531Z,100986.88
2019-03-18T07:45:45.906Z,100984.95
2019-03-18T07:48:29.937Z,100981.77
2019-03-18T07:50:50.233Z,100994.42
2019-03-18T07:53:21.506Z,100994.93
2019-03-18T07:55:52.821Z,100998.21
2019-03-18T07:58:24.096Z,101005.16
2019-03-18T08:00:55.792Z,101013.59
2019-03-18T08:03:27.156Z,101024.35
2019-03-18T08:05:58.377Z,101023.55
2019-03-18T08:08:29.696Z,101028.94
2019-03-18T08:11:01.058Z,101030.05
2019-03-18T08:13:32.345Z,101035.59
2019-03-18T08:16:03.596Z,101035.33
2019-03-18T08:18:43.101Z,101043.34
2019-03-18T08:21:07.738Z,101046.33
2019-03-18T08:23:38.937Z,101055.41
2019-03-18T08:26:10.296Z,101056.70
2019-03-18T08:28:41.643Z,101061.03
2019-03-18T08:31:13.080Z,101067.76
2019-03-18T08:34:07.960Z,101075.86
2019-03-18T08:37:10.319Z,101072.28
2019-03-18T08:39:46.708Z,101072.99
2019-03-18T08:42:20.296Z,101084.31
2019-03-18T08:44:51.631Z,101080.72
2019-03-18T08:47:22.928Z,101067.38
2019-03-18T08:49:54.094Z,101071.88
2019-03-18T08:52:25.418Z,101075.87
2019-03-18T08:54:57.637Z,101080.08
2019-03-18T08:57:28.934Z,101085.58
2019-03-18T09:00:06.786Z,101077.79
2019-03-18T09:02:43.664Z,101086.91
2019-03-18T09:05:15.379Z,101089.36
2019-03-18T09:07:48.969Z,101097.06
2019-03-18T09:10:23.787Z,101091.41
2019-03-18T09:12:55.054Z,101093.27
2019-03-18T09:15:26.125Z,101102.63
2019-03-18T09:17:57.455Z,101097.21
2019-03-18T09:20:29.295Z,101101.15
2019-03-18T09:23:01.580Z,101105.98
2019-03-18T09:25:34.531Z,101112.98
2019-03-18T09:28:06.740Z,101106.28
2019-03-18T09:30:38.004Z,101120.95
2019-03-18T09:34:31.209Z,101121.03
2019-03-18T09:37:02.732Z,101134.42
2019-03-18T09:39:34.313Z,101140.13
2019-03-18T09:42:05.628Z,101140.04
2019-03-18T09:45:10.910Z,101134.25
2019-03-18T09:47:42.497Z,101138.70
2019-03-18T09:50:14.557Z,101139.34
2019-03-18T09:52:45.906Z,101138.33
2019-03-18T09:55:17.417Z,101139.35
2019-03-18T09:57:48.811Z,101136.98
2019-03-18T10:00:20.186Z,101135.01
2019-03-18T10:03:10.833Z,101143.55
2019-03-18T10:06:01.035Z,101143.23
2019-03-18T10:08:32.280Z,101153.70
2019-03-18T10:11:08.701Z,101149.72
2019-03-18T10:13:40.031Z,101145.20
2019-03-18T10:16:18.191Z,101143.38
2019-03-18T10:18:49.547Z,101150.66
2019-03-18T10:21:20.862Z,101157.33
2019-03-18T10:23:52.151Z,101155.96
2019-03-18T10:26:23.570Z,101164.75
2019-03-18T10:28:54.857Z,101169.31
2019-03-18T10:31:26.189Z,101173.98
2019-03-18T10:33:57.610Z,101179.70
2019-03-18T10:36:28.969Z,101180.64
2019-03-18T10:39:00.504Z,101179.78
2019-03-18T10:41:33.186Z,101184.59
2019-03-18T10:44:04.689Z,101182.09
2019-03-18T10:46:37.080Z,101190.15
2019-03-18T10:49:16.088Z,101176.02
2019-03-18T10:51:48.379Z,101191.87
2019-03-18T10:54:30.470Z,101191.89
2019-03-18T10:56:52.946Z,101188.56
2019-03-18T10:59:27.777Z,101186.20
2019-03-18T11:02:00.072Z,101190.32
2019-03-18T11:04:31.348Z,101196.74
2019-03-18T11:07:02.718Z,101201.02
2019-03-18T11:09:34.043Z,101200.05
2019-03-18T11:12:05.712Z,101199.34
2019-03-18T11:14:37.733Z,101200.48
2019-03-18T11:17:09.173Z,101210.45
2019-03-18T11:19:41.038Z,101220.40
2019-03-18T11:22:12.771Z,101239.08
2019-03-18T11:24:44.834Z,101247.09
2019-03-18T11:27:17.327Z,101232.58
2019-03-18T11:29:48.901Z,101232.86
2019-03-18T11:32:23.245Z,101233.59
2019-03-18T11:35:22.489Z,101238.39
2019-03-18T11:38:40.110Z,101235.66
2019-03-18T11:41:17.504Z,101242.03
2019-03-18T11:44:11.310Z,101238.31
2019-03-18T11:46:51.628Z,101244.56
2019-03-18T11:49:38.978Z,101252.62
2019-03-18T11:52:00.475Z,101255.30
2019-03-18T11:54:36.617Z,101246.56
2019-03-18T11:57:19.687Z,101247.88
2019-03-18T12:00:00.447Z,101237.84
2019-03-18T12:02:54.341Z,101236.65
2019-03-18T12:05:27.211Z,101234.11
2019-03-18T12:07:58.890Z,101230.84
2019-03-18T12:10:30.206Z,101232.45
2019-03-18T12:13:01.892Z,101241.49
2019-03-18T12:15:36.325Z,101238.81
2019-03-18T12:18:07.814Z,101240.06
2019-03-18T12:20:39.391Z,101245.85
2019-03-18T12:23:13.924Z,101253.55
2019-03-18T12:25:45.292Z,101255.16
2019-03-18T12:28:16.685Z,101252.02
2019-03-18T12:30:47.996Z,101249.12
2019-03-18T12:33:19.235Z,101254.23
2019-03-18T12:35:50.600Z,101257.88
2019-03-18T12:38:21.781Z,101252.84
2019-03-18T12:40:53.143Z,101247.24
2019-03-18T12:43:24.540Z,101249.31
2019-03-18T12:45:55.991Z,101249.38
2019-03-18T12:48:30.952Z,101254.52
2019-03-18T12:51:03.214Z,101253.83
2019-03-18T12:53:34.548Z,101248.95
2019-03-18T12:56:05.982Z,101255.84
2019-03-18T12:58:37.281Z,101252.31
2019-03-18T13:01:12.717Z,101248.38
2019-03-18T13:03:42.960Z,101260.84
2019-03-18T13:06:14.454Z,101257.64
2019-03-18T13:08:46.918Z,101261.30
2019-03-18T13:11:19.775Z,101259.47
2019-03-18T13:13:52.567Z,101260.96
2019-03-18T13:16:23.934Z,101265.77
2019-03-18T13:18:55.221Z,101256.72
2019-03-18T13:21:30.718Z,101257.64
2019-03-18T13:24:02.327Z,101257.27
2019-03-18T13:26:37.880Z,101263.94
2019-03-18T13:29:09.959Z,101273.52
2019-03-18T13:31:43.862Z,101269.45
2019-03-18T13:34:17.701Z,101267.72
2019-03-18T13:36:50.065Z,101273.48
2019-03-18T13:39:24.228Z,101265.30
2019-03-18T13:41:55.452Z,101257.09
2019-03-18T13:44:26.718Z,101275.91
2019-03-18T13:46:57.906Z,101273.88
2019-03-18T13:49:29.213Z,101268.28
2019-03-18T13:52:00.535Z,101268.44
2019-03-18T13:54:32.485Z,101257.56
2019-03-18T13:57:03.980Z,101255.09
2019-03-18T13:59:35.312Z,101266.56
2019-03-18T14:02:06.970Z,101266.81
2019-03-18T14:04:38.242Z,101260.77
2019-03-18T14:07:09.487Z,101266.68
2019-03-18T14:09:40.769Z,101263.68
2019-03-18T14:12:13.197Z,101273.11
2019-03-18T14:14:44.465Z,101274.39
2019-03-18T14:17:16.012Z,101276.02
2019-03-18T14:19:47.320Z,101276.12
2019-03-18T14:22:19.283Z,101287.84
2019-03-18T14:24:50.920Z,101293.45
2019-03-18T14:27:22.386Z,101300.01
2019-03-18T14:29:53.620Z,101295.88
2019-03-18T14:32:24.916Z,101287.46
2019-03-18T14:35:34.203Z,101303.33
2019-03-18T14:38:05.497Z,101301.91
2019-03-18T14:40:36.727Z,101303.58
2019-03-18T14:43:08.179Z,101294.50
2019-03-18T14:45:39.513Z,101331.80
2019-03-18T14:48:10.826Z,101333.81
2019-03-18T14:50:42.115Z,101355.59
2019-03-18T14:53:13.813Z,101352.50
2019-03-18T14:55:45.017Z,101360.48
2019-03-18T14:58:19.797Z,101358.25
2019-03-18T15:00:51.444Z,101356.92
2019-03-18T15:03:23.117Z,101365.27
2019-03-18T15:05:54.688Z,101360.39
2019-03-18T15:08:26.268Z,101362.17
2019-03-18T15:10:57.671Z,101372.86
2019-03-18T15:13:31.376Z,101373.59
2019-03-18T15:16:02.678Z,101377.53
2019-03-18T15:18:33.971Z,101373.61
2019-03-18T15:21:05.241Z,101383.63
2019-03-18T15:23:36.512Z,101380.91
2019-03-18T15:26:07.754Z,101381.67
2019-03-18T15:28:38.982Z,101392.25
2019-03-18T15:31:10.232Z,101393.92
2019-03-18T15:33:41.416Z,101400.91
2019-03-18T15:36:12.674Z,101402.50
2019-03-18T15:38:43.917Z,101408.48
2019-03-18T15:41:15.219Z,101402.01
2019-03-18T15:43:49.782Z,101403.45
2019-03-18T15:46:20.935Z,101405.58
2019-03-18T15:48:52.348Z,101404.44
2019-03-18T15:51:23.633Z,101400.14
2019-03-18T15:53:54.902Z,101400.59
2019-03-18T15:56:26.224Z,101403.99
2019-03-18T15:58:57.592Z,101405.50
2019-03-18T16:01:29.053Z,101403.98
2019-03-18T16:04:00.238Z,101404.99
2019-03-18T16:06:31.634Z,101400.02
2019-03-18T16:09:02.907Z,101408.77
2019-03-18T16:11:34.335Z,101409.64
2019-03-18T16:14:07.267Z,101412.42
2019-03-18T16:16:38.575Z,101415.45
2019-03-18T16:19:09.905Z,101421.98
2019-03-18T16:21:40.911Z,101427.23
2019-03-18T16:24:12.124Z,101431.84
2019-03-18T16:26:43.460Z,101431.31
2019-03-18T16:29:14.862Z,101436.27
2019-03-18T16:31:46.268Z,101437.66
2019-03-18T16:34:17.568Z,101436.72
2019-03-18T16:36:50.101Z,101437.59
2019-03-18T16:39:21.390Z,101444.30
2019-03-18T16:41:54.335Z,101443.34
2019-03-18T16:44:27.591Z,101452.19
2019-03-18T16:46:58.867Z,101463.87
2019-03-18T16:49:30.147Z,101458.13
2019-03-18T16:52:01.376Z,101470.44
2019-03-18T16:54:32.621Z,101478.27
2019-03-18T16:57:03.828Z,101479.33
2019-03-18T16:59:35.151Z,101480.11
2019-03-18T17:02:06.381Z,101483.06
2019-03-18T17:04:37.614Z,101487.49
2019-03-18T17:07:08.755Z,101490.49
2019-03-18T17:09:40.042Z,101488.77
2019-03-18T17:12:11.320Z,101490.91
2019-03-18T17:14:42.592Z,101502.13
2019-03-18T17:17:14.511Z,101495.01
2019-03-18T17:19:45.771Z,101496.03
2019-03-18T17:22:17.122Z,101503.77
2019-03-18T17:24:49.223Z,101505.72
2019-03-18T17:27:20.629Z,101510.67
2019-03-18T17:29:51.895Z,101519.02
2019-03-18T17:32:42.209Z,101522.41
2019-03-18T17:35:13.687Z,101519.31
2019-03-18T17:37:45.191Z,101525.34
2019-03-18T17:40:16.809Z,101531.74
2019-03-18T17:42:48.096Z,101532.93
2019-03-18T17:45:19.417Z,101538.46
2019-03-18T17:47:50.734Z,101538.23
2019-03-18T17:50:22.254Z,101534.01
2019-03-18T17:53:02.531Z,101545.45
2019-03-18T17:55:26.448Z,101549.41
2019-03-18T17:57:57.765Z,101552.16
2019-03-18T18:00:38.703Z,101557.78
2019-03-18T18:03:10.004Z,101562.70
2019-03-18T18:05:41.298Z,101566.75
2019-03-18T18:08:12.542Z,101561.27
2019-03-18T18:10:43.819Z,101563.05
2019-03-18T18:13:15.552Z,101568.19
2019-03-18T18:15:46.843Z,101561.05
2019-03-18T18:18:18.112Z,101567.09
2019-03-18T18:20:49.404Z,101576.80
2019-03-18T18:23:20.704Z,101584.27
2019-03-18T18:25:52.001Z,101584.61
2019-03-18T18:28:23.230Z,101592.30
2019-03-18T18:30:54.493Z,101596.81
2019-03-18T18:33:25.698Z,101598.81
2019-03-18T18:35:57.105Z,101606.69
2019-03-18T18:38:28.349Z,101614.83
2019-03-18T18:40:59.549Z,101614.38
2019-03-18T18:43:36.024Z,101617.45
2019-03-18T18:46:07.273Z,101617.03
2019-03-18T18:48:38.540Z,101624.41
2019-03-18T18:51:09.822Z,101624.51
2019-03-18T18:53:41.076Z,101627.41
2019-03-18T18:56:12.310Z,101630.23
2019-03-18T18:58:43.627Z,101635.17
2019-03-18T19:01:14.858Z,101637.48
2019-03-18T19:03:46.067Z,101644.88
2019-03-18T19:06:17.264Z,101637.66
2019-03-18T19:08:48.542Z,101642.27
2019-03-18T19:11:19.823Z,101642.84
2019-03-18T19:13:51.110Z,101649.31
2019-03-18T19:16:22.482Z,101657.19
2019-03-18T19:18:53.807Z,101653.31
2019-03-18T19:21:25.083Z,101666.79
2019-03-18T19:23:56.358Z,101661.91
2019-03-18T19:26:27.621Z,101669.60
2019-03-18T19:28:58.800Z,101664.20
2019-03-18T19:31:30.065Z,101673.83
2019-03-18T19:34:01.390Z,101673.41
2019-03-18T19:36:32.690Z,101680.63
2019-03-18T19:39:04.403Z,101681.58
2019-03-18T19:41:35.945Z,101679.17
2019-03-18T19:44:07.611Z,101686.67
2019-03-18T19:46:39.293Z,101690.16
2019-03-18T19:49:10.539Z,101686.09
2019-03-18T19:51:44.843Z,101689.27
2019-03-18T19:54:16.180Z,101696.75
2019-03-18T19:56:47.494Z,101696.84
2019-03-18T19:59:18.683Z,101698.77
2019-03-18T20:01:50.138Z,101704.22
2019-03-18T20:04:21.327Z,101708.04
2019-03-18T20:06:52.578Z,101713.94
2019-03-18T20:09:23.868Z,101718.02
2019-03-18T20:11:55.140Z,101725.05
2019-03-18T20:14:28.205Z,101726.75
2019-03-18T20:16:59.402Z,101734.01
2019-03-18T20:19:30.711Z,101730.75
2019-03-18T20:22:01.931Z,101738.98
2019-03-18T20:24:33.238Z,101745.20
2019-03-18T20:27:04.510Z,101743.07
2019-03-18T20:29:35.743Z,101745.97
2019-03-18T20:32:06.996Z,101744.29
2019-03-18T20:34:38.208Z,101750.02
2019-03-18T20:37:09.637Z,101758.52
2019-03-18T20:39:44.301Z,101760.89
2019-03-18T20:42:15.653Z,101765.70
2019-03-18T20:44:48.237Z,101765.27
2019-03-18T20:47:19.485Z,101764.78
2019-03-18T20:50:21.429Z,101766.38
2019-03-18T20:52:51.965Z,101770.53
2019-03-18T20:55:25.961Z,101775.97
2019-03-18T20:57:57.298Z,101781.38
2019-03-18T21:00:28.590Z,101783.39
2019-03-18T21:03:03.583Z,101781.07
2019-03-18T21:05:35.025Z,101778.58
2019-03-18T21:08:06.494Z,101791.31
2019-03-18T21:10:37.825Z,101799.87
2019-03-18T21:13:09.108Z,101796.30
2019-03-18T21:15:42.842Z,101806.26
2019-03-18T21:18:14.095Z,101809.04
2019-03-18T21:20:45.421Z,101811.25
2019-03-18T21:23:16.776Z,101816.44
2019-03-18T21:25:48.128Z,101823.03
2019-03-18T21:28:19.323Z,101827.90
2019-03-18T21:30:50.740Z,101830.86
2019-03-18T21:33:22.002Z,101833.48
2019-03-18T21:35:55.725Z,101830.63
2019-03-18T21:38:26.271Z,101831.96
2019-03-18T21:40:57.602Z,101834.60
2019-03-18T21:43:28.923Z,101843.72
2019-03-18T21:46:00.421Z,101846.42
2019-03-18T21:48:44.896Z,101851.42
2019-03-18T21:51:19.075Z,101854.98
2019-03-18T21:53:50.402Z,101848.74
2019-03-18T21:56:21.631Z,101849.52
2019-03-18T21:58:53.052Z,101848.96
2019-03-18T22:01:24.319Z,101851.04
2019-03-18T22:03:57.018Z,101853.28
2019-03-18T22:06:33.367Z,101854.66
2019-03-18T22:09:06.517Z,101851.66
2019-03-18T22:11:38.748Z,101855.80
2019-03-18T22:14:11.908Z,101852.88
2019-03-18T22:16:44.584Z,101861.46
2019-03-18T22:19:15.998Z,101859.84
2019-03-18T22:21:47.276Z,101859.73
2019-03-18T22:24:18.527Z,101864.11
2019-03-18T22:26:49.911Z,101859.73
2019-03-18T22:29:21.352Z,101858.86
2019-03-18T22:31:52.684Z,101864.47
2019-03-18T22:34:26.985Z,101867.45
2019-03-18T22:36:58.287Z,101867.75
2019-03-18T22:39:34.354Z,101869.44
2019-03-18T22:42:05.594Z,101870.59
2019-03-18T22:44:36.883Z,101871.45
2019-03-18T22:47:08.276Z,101876.67
2019-03-18T22:49:39.574Z,101882.64
2019-03-18T22:52:11.323Z,101879.64
2019-03-18T22:54:55.574Z,101881.37
2019-03-18T22:57:18.664Z,101883.69
2019-03-18T22:59:49.965Z,101885.73
2019-03-18T23:02:21.323Z,101885.86
2019-03-18T23:04:52.523Z,101893.65
2019-03-18T23:07:23.838Z,101894.25
2019-03-18T23:09:55.129Z,101903.66
2019-03-18T23:12:26.489Z,101898.88
2019-03-18T23:14:58.051Z,101900.55
2019-03-18T23:17:29.283Z,101900.47
2019-03-18T23:20:03.389Z,101908.84
2019-03-18T23:22:34.639Z,101911.56
2019-03-18T23:25:07.681Z,101914.31
2019-03-18T23:27:39.013Z,101914.98
2019-03-18T23:30:10.258Z,101914.58
2019-03-18T23:32:41.531Z,101914.62
2019-03-18T23:35:13.505Z,101912.31
2019-03-18T23:38:25.719Z,101914.20
2019-03-18T23:40:56.957Z,101919.31
2019-03-18T23:43:28.294Z,101916.11
2019-03-18T23:45:59.590Z,101923.39
2019-03-18T23:48:33.490Z,101913.38
2019-03-18T23:51:04.780Z,101921.13
2019-03-18T23:53:43.581Z,101918.63
2019-03-18T23:56:14.833Z,101923.00
2019-03-18T23:58:45.995Z,101917.10
